sensor_id;sensor_type;location;lat;lon;timestamp;pressure;altitude;pressure_sealevel;temperature;humidity
5522;BME280;2783;48.730;8.006;2023-01-30T00:00:20;100971.16;;;0.65;93.55
5522;BME280;2783;48.730;8.006;2023-01-30T00:02:45;100978.94;;;0.62;93.13
5522;BME280;2783;48.730;8.006;2023-01-30T00:05:11;100973.59;;;0.57;93.86
5522;BME280;2783;48.730;8.006;2023-01-30T00:07:36;100966.53;;;0.53;92.95
5522;BME280;2783;48.730;8.006;2023-01-30T00:10:01;100979.66;;;0.56;93.78
5522;BME280;2783;48.730;8.006;2023-01-30T00:12:27;100978.88;;;0.59;94.33
5522;BME280;2783;48.730;8.006;2023-01-30T00:14:52;100985.84;;;0.58;94.64
5522;BME280;2783;48.730;8.006;2023-01-30T00:17:18;100970.97;;;0.56;94.05
5522;BME280;2783;48.730;8.006;2023-01-30T00:19:43;100954.28;;;0.52;94.78
5522;BME280;2783;48.730;8.006;2023-01-30T00:22:08;100956.13;;;0.56;95.04
5522;BME280;2783;48.730;8.006;2023-01-30T00:24:34;100966.69;;;0.59;95.29
5522;BME280;2783;48.730;8.006;2023-01-30T00:26:59;100964.00;;;0.58;95.61
5522;BME280;2783;48.730;8.006;2023-01-30T00:29:24;100980.69;;;0.63;95.51
5522;BME280;2783;48.730;8.006;2023-01-30T00:31:49;100986.84;;;0.65;95.80
5522;BME280;2783;48.730;8.006;2023-01-30T00:34:15;100989.53;;;0.68;95.53
5522;BME280;2783;48.730;8.006;2023-01-30T00:36:40;100993.94;;;0.69;94.83
5522;BME280;2783;48.730;8.006;2023-01-30T00:39:05;101008.81;;;0.71;94.89
5522;BME280;2783;48.730;8.006;2023-01-30T00:41:30;101010.66;;;0.75;95.34
5522;BME280;2783;48.730;8.006;2023-01-30T00:44:16;101012.50;;;0.81;94.89
5522;BME280;2783;48.730;8.006;2023-01-30T00:46:59;101021.28;;;0.83;95.21
5522;BME280;2783;48.730;8.006;2023-01-30T00:49:32;101039.81;;;0.90;94.97
5522;BME280;2783;48.730;8.006;2023-01-30T00:51:57;101066.97;;;0.94;94.93
5522;BME280;2783;48.730;8.006;2023-01-30T00:54:23;101057.31;;;0.93;94.51
5522;BME280;2783;48.730;8.006;2023-01-30T00:56:48;101059.09;;;0.94;94.45
5522;BME280;2783;48.730;8.006;2023-01-30T00:59:13;101066.06;;;0.93;93.96
5522;BME280;2783;48.730;8.006;2023-01-30T01:01:39;101072.97;;;0.90;93.92
5522;BME280;2783;48.730;8.006;2023-01-30T01:04:04;101081.69;;;0.89;94.08
5522;BME280;2783;48.730;8.006;2023-01-30T01:06:30;101083.16;;;0.78;94.06
5522;BME280;2783;48.730;8.006;2023-01-30T01:08:56;101086.63;;;0.77;94.70
5522;BME280;2783;48.730;8.006;2023-01-30T01:11:21;101083.06;;;0.75;94.90
5522;BME280;2783;48.730;8.006;2023-01-30T01:13:52;101084.69;;;0.70;94.37
5522;BME280;2783;48.730;8.006;2023-01-30T01:16:18;101081.09;;;0.65;94.86
5522;BME280;2783;48.730;8.006;2023-01-30T01:18:43;101079.34;;;0.64;95.64
5522;BME280;2783;48.730;8.006;2023-01-30T01:21:08;101072.31;;;0.63;96.14
5522;BME280;2783;48.730;8.006;2023-01-30T01:23:34;101080.31;;;0.69;95.96
5522;BME280;2783;48.730;8.006;2023-01-30T01:26:02;101083.91;;;0.72;96.25
5522;BME280;2783;48.730;8.006;2023-01-30T01:28:27;101081.38;;;0.77;97.05
5522;BME280;2783;48.730;8.006;2023-01-30T01:30:53;101095.53;;;0.85;96.73
5522;BME280;2783;48.730;8.006;2023-01-30T01:33:18;101099.13;;;0.88;97.62
5522;BME280;2783;48.730;8.006;2023-01-30T01:35:44;101092.16;;;0.89;96.40
5522;BME280;2783;48.730;8.006;2023-01-30T01:38:11;101076.34;;;0.86;96.74
5522;BME280;2783;48.730;8.006;2023-01-30T01:40:36;101072.84;;;0.84;97.54
5522;BME280;2783;48.730;8.006;2023-01-30T01:43:21;101078.19;;;0.90;97.30
5522;BME280;2783;48.730;8.006;2023-01-30T01:45:47;101090.53;;;0.94;97.74
5522;BME280;2783;48.730;8.006;2023-01-30T01:48:21;101071.34;;;0.95;97.88
5522;BME280;2783;48.730;8.006;2023-01-30T01:50:50;101049.53;;;0.96;97.37
5522;BME280;2783;48.730;8.006;2023-01-30T01:53:19;101050.31;;;0.92;97.34
5522;BME280;2783;48.730;8.006;2023-01-30T01:55:46;101054.59;;;0.88;97.83
5522;BME280;2783;48.730;8.006;2023-01-30T01:58:14;101056.28;;;0.86;97.97
5522;BME280;2783;48.730;8.006;2023-01-30T02:00:41;101038.09;;;0.92;97.26
5522;BME280;2783;48.730;8.006;2023-01-30T02:03:07;101012.72;;;0.90;97.24
5522;BME280;2783;48.730;8.006;2023-01-30T02:05:37;100997.06;;;0.93;97.89
5522;BME280;2783;48.730;8.006;2023-01-30T02:08:06;101000.72;;;0.99;97.27
5522;BME280;2783;48.730;8.006;2023-01-30T02:13:00;101035.78;;;1.06;95.87
5522;BME280;2783;48.730;8.006;2023-01-30T02:15:25;101031.34;;;1.02;95.59
5522;BME280;2783;48.730;8.006;2023-01-30T02:17:51;101027.06;;;1.05;95.76
5522;BME280;2783;48.730;8.006;2023-01-30T02:20:22;101020.25;;;1.13;95.08
5522;BME280;2783;48.730;8.006;2023-01-30T02:28:09;101000.03;;;1.08;94.39
5522;BME280;2783;48.730;8.006;2023-01-30T02:30:51;100992.75;;;0.95;94.70
5522;BME280;2783;48.730;8.006;2023-01-30T02:36:32;100972.53;;;0.88;95.62
5522;BME280;2783;48.730;8.006;2023-01-30T02:39:07;100972.47;;;0.85;96.18
5522;BME280;2783;48.730;8.006;2023-01-30T02:44:09;100949.03;;;0.91;96.02
5522;BME280;2783;48.730;8.006;2023-01-30T02:51:28;100911.84;;;1.08;96.57
5522;BME280;2783;48.730;8.006;2023-01-30T02:53:54;100909.22;;;1.07;95.26
5522;BME280;2783;48.730;8.006;2023-01-30T02:56:20;100900.59;;;1.14;95.92
5522;BME280;2783;48.730;8.006;2023-01-30T02:58:49;100899.72;;;1.12;95.73
5522;BME280;2783;48.730;8.006;2023-01-30T03:06:42;100847.13;;;1.03;95.81
5522;BME280;2783;48.730;8.006;2023-01-30T03:14:37;100842.00;;;1.09;96.27
5522;BME280;2783;48.730;8.006;2023-01-30T03:17:05;100821.00;;;1.07;96.41
5522;BME280;2783;48.730;8.006;2023-01-30T03:19:32;100814.16;;;1.15;96.84
5522;BME280;2783;48.730;8.006;2023-01-30T03:21:57;100806.38;;;1.17;95.36
5522;BME280;2783;48.730;8.006;2023-01-30T03:24:22;100806.47;;;1.23;95.54
5522;BME280;2783;48.730;8.006;2023-01-30T03:26:50;100813.63;;;1.33;95.80
5522;BME280;2783;48.730;8.006;2023-01-30T03:29:18;100840.00;;;1.45;95.31
5522;BME280;2783;48.730;8.006;2023-01-30T03:31:43;100847.09;;;1.49;94.10
5522;BME280;2783;48.730;8.006;2023-01-30T03:34:08;100857.66;;;1.55;93.42
5522;BME280;2783;48.730;8.006;2023-01-30T03:36:34;100861.28;;;1.62;92.58
5522;BME280;2783;48.730;8.006;2023-01-30T03:38:59;100854.47;;;1.71;92.35
5522;BME280;2783;48.730;8.006;2023-01-30T03:41:24;100856.22;;;1.72;91.95
5522;BME280;2783;48.730;8.006;2023-01-30T03:43:50;100853.69;;;1.78;92.12
5522;BME280;2783;48.730;8.006;2023-01-30T03:46:15;100860.53;;;1.70;91.93
5522;BME280;2783;48.730;8.006;2023-01-30T03:48:40;100865.75;;;1.67;92.24
5522;BME280;2783;48.730;8.006;2023-01-30T03:51:05;100861.41;;;1.69;92.11
5522;BME280;2783;48.730;8.006;2023-01-30T03:53:31;100865.78;;;1.69;91.33
5522;BME280;2783;48.730;8.006;2023-01-30T03:55:56;100857.91;;;1.70;92.18
5522;BME280;2783;48.730;8.006;2023-01-30T03:58:21;100861.47;;;1.72;91.21
5522;BME280;2783;48.730;8.006;2023-01-30T04:00:46;100842.22;;;1.73;91.55
5522;BME280;2783;48.730;8.006;2023-01-30T04:03:12;100837.09;;;1.79;91.99
5522;BME280;2783;48.730;8.006;2023-01-30T04:05:37;100836.19;;;1.77;90.85
5522;BME280;2783;48.730;8.006;2023-01-30T04:08:02;100829.22;;;1.78;90.57
5522;BME280;2783;48.730;8.006;2023-01-30T04:10:27;100830.19;;;1.83;90.94
5522;BME280;2783;48.730;8.006;2023-01-30T04:12:53;100825.97;;;1.94;90.68
5522;BME280;2783;48.730;8.006;2023-01-30T04:15:18;100832.09;;;1.94;89.70
5522;BME280;2783;48.730;8.006;2023-01-30T04:17:43;100840.97;;;2.02;89.19
5522;BME280;2783;48.730;8.006;2023-01-30T04:20:09;100841.94;;;2.10;88.79
5522;BME280;2783;48.730;8.006;2023-01-30T04:22:34;100849.91;;;2.16;88.64
5522;BME280;2783;48.730;8.006;2023-01-30T04:25:00;100845.72;;;2.29;87.95
5522;BME280;2783;48.730;8.006;2023-01-30T04:27:25;100843.84;;;2.20;87.16
5522;BME280;2783;48.730;8.006;2023-01-30T04:29:50;100849.16;;;2.25;87.75
5522;BME280;2783;48.730;8.006;2023-01-30T04:32:16;100859.78;;;2.34;87.89
5522;BME280;2783;48.730;8.006;2023-01-30T04:34:41;100859.81;;;2.37;87.01
5522;BME280;2783;48.730;8.006;2023-01-30T04:37:07;100866.84;;;2.39;86.91
5522;BME280;2783;48.730;8.006;2023-01-30T04:39:33;100876.44;;;2.39;87.40
5522;BME280;2783;48.730;8.006;2023-01-30T04:41:58;100878.09;;;2.31;87.10
5522;BME280;2783;48.730;8.006;2023-01-30T04:44:23;100870.28;;;2.34;87.80
5522;BME280;2783;48.730;8.006;2023-01-30T04:46:48;100873.81;;;2.37;87.03
5522;BME280;2783;48.730;8.006;2023-01-30T04:49:14;100873.00;;;2.41;87.29
5522;BME280;2783;48.730;8.006;2023-01-30T04:51:39;100869.50;;;2.42;87.40
5522;BME280;2783;48.730;8.006;2023-01-30T04:54:04;100860.78;;;2.43;86.61
5522;BME280;2783;48.730;8.006;2023-01-30T04:56:30;100846.81;;;2.47;86.86
5522;BME280;2783;48.730;8.006;2023-01-30T04:58:55;100860.81;;;2.46;87.12
5522;BME280;2783;48.730;8.006;2023-01-30T05:01:28;100867.84;;;2.50;86.58
5522;BME280;2783;48.730;8.006;2023-01-30T05:03:54;100867.09;;;2.57;86.92
5522;BME280;2783;48.730;8.006;2023-01-30T05:06:20;100858.28;;;2.55;85.60
5522;BME280;2783;48.730;8.006;2023-01-30T05:08:49;100849.59;;;2.58;86.24
5522;BME280;2783;48.730;8.006;2023-01-30T05:11:14;100847.03;;;2.62;85.48
5522;BME280;2783;48.730;8.006;2023-01-30T05:13:39;100833.03;;;2.63;86.13
5522;BME280;2783;48.730;8.006;2023-01-30T05:16:05;100843.50;;;2.62;86.27
5522;BME280;2783;48.730;8.006;2023-01-30T05:18:30;100843.56;;;2.63;85.28
5522;BME280;2783;48.730;8.006;2023-01-30T05:21:05;100833.06;;;2.66;85.11
5522;BME280;2783;48.730;8.006;2023-01-30T05:23:31;100827.72;;;2.60;84.74
5522;BME280;2783;48.730;8.006;2023-01-30T05:25:56;100833.06;;;2.66;85.13
5522;BME280;2783;48.730;8.006;2023-01-30T05:28:21;100836.56;;;2.68;84.86
5522;BME280;2783;48.730;8.006;2023-01-30T05:30:47;100824.38;;;2.73;85.23
5522;BME280;2783;48.730;8.006;2023-01-30T05:33:12;100833.16;;;2.76;84.87
5522;BME280;2783;48.730;8.006;2023-01-30T05:35:37;100850.59;;;2.67;84.76
5522;BME280;2783;48.730;8.006;2023-01-30T05:38:02;100845.47;;;2.77;83.89
5522;BME280;2783;48.730;8.006;2023-01-30T05:40:28;100841.81;;;2.67;84.87
5522;BME280;2783;48.730;8.006;2023-01-30T05:42:53;100840.06;;;2.67;84.62
5522;BME280;2783;48.730;8.006;2023-01-30T05:45:18;100850.75;;;2.80;84.26
5522;BME280;2783;48.730;8.006;2023-01-30T05:47:43;100845.50;;;2.80;84.14
5522;BME280;2783;48.730;8.006;2023-01-30T05:50:09;100839.31;;;2.78;84.31
5522;BME280;2783;48.730;8.006;2023-01-30T05:52:34;100829.75;;;2.81;84.89
5522;BME280;2783;48.730;8.006;2023-01-30T05:55:00;100823.50;;;2.70;85.19
5522;BME280;2783;48.730;8.006;2023-01-30T05:57:25;100820.06;;;2.77;85.34
5522;BME280;2783;48.730;8.006;2023-01-30T05:59:50;100818.31;;;2.79;84.95
5522;BME280;2783;48.730;8.006;2023-01-30T06:02:16;100811.22;;;2.69;85.63
5522;BME280;2783;48.730;8.006;2023-01-30T06:04:41;100817.41;;;2.76;86.29
5522;BME280;2783;48.730;8.006;2023-01-30T06:07:06;100820.06;;;2.77;86.58
5522;BME280;2783;48.730;8.006;2023-01-30T06:09:31;100813.03;;;2.75;86.51
5522;BME280;2783;48.730;8.006;2023-01-30T06:11:57;100802.47;;;2.70;86.59
5522;BME280;2783;48.730;8.006;2023-01-30T06:14:22;100801.56;;;2.66;86.56
5522;BME280;2783;48.730;8.006;2023-01-30T06:16:47;100799.00;;;2.72;86.96
5522;BME280;2783;48.730;8.006;2023-01-30T06:19:12;100808.59;;;2.70;86.31
5522;BME280;2783;48.730;8.006;2023-01-30T06:21:38;100797.25;;;2.72;86.65
5522;BME280;2783;48.730;8.006;2023-01-30T06:24:03;100806.78;;;2.63;87.45
5522;BME280;2783;48.730;8.006;2023-01-30T06:26:28;100799.78;;;2.65;86.91
5522;BME280;2783;48.730;8.006;2023-01-30T06:28:53;100812.09;;;2.69;87.18
5522;BME280;2783;48.730;8.006;2023-01-30T06:31:19;100812.88;;;2.62;87.29
5522;BME280;2783;48.730;8.006;2023-01-30T06:33:44;100805.06;;;2.68;86.87
5522;BME280;2783;48.730;8.006;2023-01-30T06:36:09;100800.72;;;2.70;87.10
5522;BME280;2783;48.730;8.006;2023-01-30T06:38:34;100780.53;;;2.63;87.70
5522;BME280;2783;48.730;8.006;2023-01-30T06:41:00;100781.38;;;2.64;87.95
5522;BME280;2783;48.730;8.006;2023-01-30T06:43:25;100773.41;;;2.53;87.42
5522;BME280;2783;48.730;8.006;2023-01-30T06:45:50;100779.59;;;2.58;88.04
5522;BME280;2783;48.730;8.006;2023-01-30T06:48:16;100774.25;;;2.54;86.76
5522;BME280;2783;48.730;8.006;2023-01-30T06:50:41;100776.97;;;2.58;87.00
5522;BME280;2783;48.730;8.006;2023-01-30T06:53:07;100788.44;;;2.68;86.53
5522;BME280;2783;48.730;8.006;2023-01-30T06:55:33;100789.38;;;2.72;86.05
5522;BME280;2783;48.730;8.006;2023-01-30T06:58:03;100787.53;;;2.66;86.96
5522;BME280;2783;48.730;8.006;2023-01-30T07:00:29;100770.06;;;2.66;86.14
5522;BME280;2783;48.730;8.006;2023-01-30T07:02:55;100782.28;;;2.64;86.35
5522;BME280;2783;48.730;8.006;2023-01-30T07:05:20;100783.22;;;2.71;87.22
5522;BME280;2783;48.730;8.006;2023-01-30T07:07:46;100789.41;;;2.75;87.11
5522;BME280;2783;48.730;8.006;2023-01-30T07:10:11;100815.66;;;2.75;86.82
5522;BME280;2783;48.730;8.006;2023-01-30T07:12:36;100820.94;;;2.78;86.81
5522;BME280;2783;48.730;8.006;2023-01-30T07:15:02;100817.41;;;2.76;86.70
5522;BME280;2783;48.730;8.006;2023-01-30T07:17:27;100820.00;;;2.71;86.67
5522;BME280;2783;48.730;8.006;2023-01-30T07:19:52;100818.31;;;2.78;86.00
5522;BME280;2783;48.730;8.006;2023-01-30T07:22:18;100822.75;;;2.82;86.03
5522;BME280;2783;48.730;8.006;2023-01-30T07:24:43;100833.31;;;2.88;86.44
5522;BME280;2783;48.730;8.006;2023-01-30T07:27:09;100831.50;;;2.84;86.87
5522;BME280;2783;48.730;8.006;2023-01-30T07:29:35;100831.56;;;2.87;86.91
5522;BME280;2783;48.730;8.006;2023-01-30T07:32:00;100826.41;;;2.97;85.87
5522;BME280;2783;48.730;8.006;2023-01-30T07:34:25;100824.53;;;2.87;86.34
5522;BME280;2783;48.730;8.006;2023-01-30T07:36:51;100838.59;;;2.91;86.47
5522;BME280;2783;48.730;8.006;2023-01-30T07:39:16;100839.47;;;2.90;85.49
5522;BME280;2783;48.730;8.006;2023-01-30T07:41:41;100843.88;;;2.94;85.59
5522;BME280;2783;48.730;8.006;2023-01-30T07:44:06;100839.59;;;3.03;84.89
5522;BME280;2783;48.730;8.006;2023-01-30T07:46:32;100840.44;;;2.98;85.29
5522;BME280;2783;48.730;8.006;2023-01-30T07:49:02;100842.19;;;2.99;85.02
5522;BME280;2783;48.730;8.006;2023-01-30T07:51:27;100837.84;;;3.01;84.74
5522;BME280;2783;48.730;8.006;2023-01-30T07:53:52;100831.72;;;3.02;85.31
5522;BME280;2783;48.730;8.006;2023-01-30T07:56:18;100826.50;;;3.05;84.93
5522;BME280;2783;48.730;8.006;2023-01-30T07:58:45;100829.06;;;2.99;84.73
5522;BME280;2783;48.730;8.006;2023-01-30T08:01:10;100826.47;;;3.03;85.13
5522;BME280;2783;48.730;8.006;2023-01-30T08:03:35;100818.63;;;3.05;86.32
5522;BME280;2783;48.730;8.006;2023-01-30T08:06:01;100830.88;;;3.03;86.45
5522;BME280;2783;48.730;8.006;2023-01-30T08:08:26;100829.06;;;3.00;85.97
5522;BME280;2783;48.730;8.006;2023-01-30T08:10:51;100843.13;;;3.05;86.55
5522;BME280;2783;48.730;8.006;2023-01-30T08:13:16;100849.28;;;3.06;86.36
5522;BME280;2783;48.730;8.006;2023-01-30T08:15:42;100852.88;;;3.14;86.43
5522;BME280;2783;48.730;8.006;2023-01-30T08:18:07;100854.53;;;3.06;86.78
5522;BME280;2783;48.730;8.006;2023-01-30T08:20:32;100844.91;;;3.05;87.62
5522;BME280;2783;48.730;8.006;2023-01-30T08:22:58;100848.41;;;3.07;87.07
5522;BME280;2783;48.730;8.006;2023-01-30T08:25:24;100845.00;;;3.17;86.74
5522;BME280;2783;48.730;8.006;2023-01-30T08:27:49;100845.84;;;3.10;86.80
5522;BME280;2783;48.730;8.006;2023-01-30T08:30:15;100841.44;;;3.10;87.10
5522;BME280;2783;48.730;8.006;2023-01-30T08:32:40;100862.56;;;3.19;86.35
5522;BME280;2783;48.730;8.006;2023-01-30T08:35:06;100863.44;;;3.20;86.56
5522;BME280;2783;48.730;8.006;2023-01-30T08:37:31;100859.94;;;3.18;86.80
5522;BME280;2783;48.730;8.006;2023-01-30T08:39:56;100858.16;;;3.17;86.99
5522;BME280;2783;48.730;8.006;2023-01-30T08:42:22;100856.53;;;3.28;87.02
5522;BME280;2783;48.730;8.006;2023-01-30T08:44:47;100856.56;;;3.31;86.49
5522;BME280;2783;48.730;8.006;2023-01-30T08:47:12;100847.78;;;3.32;87.38
5522;BME280;2783;48.730;8.006;2023-01-30T08:49:38;100844.28;;;3.33;87.35
5522;BME280;2783;48.730;8.006;2023-01-30T08:52:03;100841.72;;;3.36;86.99
5522;BME280;2783;48.730;8.006;2023-01-30T08:54:28;100827.72;;;3.40;87.45
5522;BME280;2783;48.730;8.006;2023-01-30T08:56:53;100833.91;;;3.45;87.64
5522;BME280;2783;48.730;8.006;2023-01-30T08:59:19;100844.41;;;3.45;87.52
5522;BME280;2783;48.730;8.006;2023-01-30T09:01:44;100832.13;;;3.41;87.18
5522;BME280;2783;48.730;8.006;2023-01-30T09:04:09;100840.94;;;3.46;87.04
5522;BME280;2783;48.730;8.006;2023-01-30T09:06:34;100816.41;;;3.48;86.36
5522;BME280;2783;48.730;8.006;2023-01-30T09:09:00;100821.66;;;3.50;85.97
5522;BME280;2783;48.730;8.006;2023-01-30T09:11:25;100824.28;;;3.48;86.06
5522;BME280;2783;48.730;8.006;2023-01-30T09:13:50;100827.81;;;3.47;85.76
5522;BME280;2783;48.730;8.006;2023-01-30T09:16:15;100833.09;;;3.55;85.29
5522;BME280;2783;48.730;8.006;2023-01-30T09:18:41;100829.63;;;3.57;84.98
5522;BME280;2783;48.730;8.006;2023-01-30T09:21:07;100819.97;;;3.55;84.94
5522;BME280;2783;48.730;8.006;2023-01-30T09:23:33;100820.06;;;3.64;84.89
5522;BME280;2783;48.730;8.006;2023-01-30T09:25:58;100819.13;;;3.59;84.99
5522;BME280;2783;48.730;8.006;2023-01-30T09:28:24;100819.06;;;3.54;85.03
5522;BME280;2783;48.730;8.006;2023-01-30T09:30:49;100814.78;;;3.62;85.10
5522;BME280;2783;48.730;8.006;2023-01-30T09:33:15;100813.00;;;3.60;84.48
5522;BME280;2783;48.730;8.006;2023-01-30T09:35:45;100807.81;;;3.69;84.69
5522;BME280;2783;48.730;8.006;2023-01-30T09:38:10;100814.84;;;3.76;84.71
5522;BME280;2783;48.730;8.006;2023-01-30T09:40:36;100814.88;;;3.79;84.46
5522;BME280;2783;48.730;8.006;2023-01-30T09:48:14;100821.16;;;3.99;84.95
5522;BME280;2783;48.730;8.006;2023-01-30T09:55:43;100822.03;;;3.92;86.62
5522;BME280;2783;48.730;8.006;2023-01-30T09:58:36;100815.00;;;3.94;87.65
5522;BME280;2783;48.730;8.006;2023-01-30T10:00:57;100787.81;;;3.93;88.37
5522;BME280;2783;48.730;8.006;2023-01-30T10:03:35;100776.38;;;3.90;89.16
5522;BME280;2783;48.730;8.006;2023-01-30T10:06:06;100790.38;;;3.89;90.08
5522;BME280;2783;48.730;8.006;2023-01-30T10:13:39;100798.25;;;3.80;91.12
5522;BME280;2783;48.730;8.006;2023-01-30T10:24:05;100787.69;;;3.74;92.36
5522;BME280;2783;48.730;8.006;2023-01-30T10:26:34;100788.56;;;3.79;92.38
5522;BME280;2783;48.730;8.006;2023-01-30T10:29:01;100780.66;;;3.77;92.65
5522;BME280;2783;48.730;8.006;2023-01-30T10:31:32;100772.78;;;3.79;93.27
5522;BME280;2783;48.730;8.006;2023-01-30T10:34:08;100775.38;;;3.70;93.67
5522;BME280;2783;48.730;8.006;2023-01-30T10:36:39;100778.91;;;3.72;93.99
5522;BME280;2783;48.730;8.006;2023-01-30T10:39:19;100780.66;;;3.74;94.41
5522;BME280;2783;48.730;8.006;2023-01-30T10:41:53;100772.69;;;3.64;95.05
5522;BME280;2783;48.730;8.006;2023-01-30T10:44:21;100776.19;;;3.66;95.71
5522;BME280;2783;48.730;8.006;2023-01-30T10:46:56;100766.59;;;3.69;96.10
5522;BME280;2783;48.730;8.006;2023-01-30T10:49:30;100771.00;;;3.72;95.94
5522;BME280;2783;48.730;8.006;2023-01-30T10:52:02;100762.22;;;3.73;96.39
5522;BME280;2783;48.730;8.006;2023-01-30T11:00:13;100743.78;;;3.64;98.08
5522;BME280;2783;48.730;8.006;2023-01-30T11:05:16;100740.25;;;3.65;98.23
5522;BME280;2783;48.730;8.006;2023-01-30T11:07:42;100730.56;;;3.61;98.39
5522;BME280;2783;48.730;8.006;2023-01-30T11:10:17;100723.59;;;3.66;98.88
5522;BME280;2783;48.730;8.006;2023-01-30T11:12:42;100711.34;;;3.68;98.68
5522;BME280;2783;48.730;8.006;2023-01-30T11:15:08;100718.41;;;3.76;98.61
5522;BME280;2783;48.730;8.006;2023-01-30T11:20:03;100739.47;;;3.78;98.51
5522;BME280;2783;48.730;8.006;2023-01-30T11:22:29;100734.25;;;3.85;97.81
5522;BME280;2783;48.730;8.006;2023-01-30T11:24:59;100728.09;;;3.83;97.69
5522;BME280;2783;48.730;8.006;2023-01-30T11:27:29;100734.28;;;3.93;96.89
5522;BME280;2783;48.730;8.006;2023-01-30T11:30:02;100732.56;;;3.95;96.46
5522;BME280;2783;48.730;8.006;2023-01-30T11:32:28;100724.66;;;3.93;96.10
5522;BME280;2783;48.730;8.006;2023-01-30T11:35:27;100710.53;;;3.84;96.82
5522;BME280;2783;48.730;8.006;2023-01-30T11:37:45;100713.22;;;3.87;96.33
5522;BME280;2783;48.730;8.006;2023-01-30T11:42:52;100724.66;;;3.98;95.54
5522;BME280;2783;48.730;8.006;2023-01-30T11:45:22;100724.69;;;4.01;96.05
5522;BME280;2783;48.730;8.006;2023-01-30T11:47:55;100727.31;;;4.01;95.48
5522;BME280;2783;48.730;8.006;2023-01-30T11:50:21;100713.31;;;4.07;95.03
5522;BME280;2783;48.730;8.006;2023-01-30T11:52:47;100718.59;;;4.11;95.42
5522;BME280;2783;48.730;8.006;2023-01-30T11:55:15;100717.69;;;4.11;94.67
5522;BME280;2783;48.730;8.006;2023-01-30T11:57:44;100717.69;;;4.12;94.68
5522;BME280;2783;48.730;8.006;2023-01-30T12:00:45;100734.44;;;4.23;94.77
5522;BME280;2783;48.730;8.006;2023-01-30T12:03:04;100727.38;;;4.16;94.48
5522;BME280;2783;48.730;8.006;2023-01-30T12:05:30;100729.13;;;4.08;94.47
5522;BME280;2783;48.730;8.006;2023-01-30T12:10:43;100740.53;;;4.10;94.56
5522;BME280;2783;48.730;8.006;2023-01-30T12:18:58;100721.16;;;3.99;95.44
5522;BME280;2783;48.730;8.006;2023-01-30T12:21:40;100726.47;;;4.05;95.68
5522;BME280;2783;48.730;8.006;2023-01-30T12:26:40;100715.91;;;4.02;97.17
5522;BME280;2783;48.730;8.006;2023-01-30T12:32:06;100710.59;;;3.93;97.45
5522;BME280;2783;48.730;8.006;2023-01-30T12:34:32;100707.91;;;3.81;98.52
5522;BME280;2783;48.730;8.006;2023-01-30T12:39:52;100708.78;;;3.77;100.00
5522;BME280;2783;48.730;8.006;2023-01-30T12:44:53;100715.78;;;3.78;100.00
5522;BME280;2783;48.730;8.006;2023-01-30T13:12:51;100720.13;;;3.70;100.00
5522;BME280;2783;48.730;8.006;2023-01-30T13:15:25;100726.28;;;3.72;100.00
5522;BME280;2783;48.730;8.006;2023-01-30T13:18:04;100731.53;;;3.72;100.00
5522;BME280;2783;48.730;8.006;2023-01-30T13:20:50;100732.47;;;3.80;100.00
5522;BME280;2783;48.730;8.006;2023-01-30T13:25:44;100734.22;;;3.84;100.00
5522;BME280;2783;48.730;8.006;2023-01-30T13:28:13;100732.50;;;3.86;100.00
5522;BME280;2783;48.730;8.006;2023-01-30T13:30:40;100734.25;;;3.85;100.00
5522;BME280;2783;48.730;8.006;2023-01-30T13:33:10;100737.75;;;3.89;100.00
5522;BME280;2783;48.730;8.006;2023-01-30T13:35:40;100739.53;;;3.88;100.00
5522;BME280;2783;48.730;8.006;2023-01-30T13:38:07;100743.09;;;3.95;100.00
5522;BME280;2783;48.730;8.006;2023-01-30T13:40:38;100757.09;;;3.97;100.00
5522;BME280;2783;48.730;8.006;2023-01-30T13:43:16;100755.34;;;3.97;100.00
5522;BME280;2783;48.730;8.006;2023-01-30T13:45:43;100756.25;;;3.99;100.00
5522;BME280;2783;48.730;8.006;2023-01-30T13:53:40;100765.06;;;4.03;100.00
5522;BME280;2783;48.730;8.006;2023-01-30T13:58:39;100758.97;;;4.10;100.00
5522;BME280;2783;48.730;8.006;2023-01-30T14:01:11;100763.34;;;4.13;100.00
5522;BME280;2783;48.730;8.006;2023-01-30T14:03:37;100772.13;;;4.15;100.00
5522;BME280;2783;48.730;8.006;2023-01-30T14:06:04;100775.59;;;4.06;100.00
5522;BME280;2783;48.730;8.006;2023-01-30T14:10:59;100777.31;;;4.01;100.00
5522;BME280;2783;48.730;8.006;2023-01-30T14:13:25;100789.66;;;4.10;100.00
5522;BME280;2783;48.730;8.006;2023-01-30T14:20:48;100797.69;;;4.35;100.00
5522;BME280;2783;48.730;8.006;2023-01-30T14:23:27;100787.19;;;4.38;100.00
5522;BME280;2783;48.730;8.006;2023-01-30T14:25:54;100800.38;;;4.49;100.00
5522;BME280;2783;48.730;8.006;2023-01-30T14:35:48;100818.88;;;4.59;100.00
5522;BME280;2783;48.730;8.006;2023-01-30T14:38:33;100809.25;;;4.63;100.00
5522;BME280;2783;48.730;8.006;2023-01-30T14:48:31;100843.44;;;4.61;100.00
5522;BME280;2783;48.730;8.006;2023-01-30T14:53:54;100845.22;;;4.65;100.00
5522;BME280;2783;48.730;8.006;2023-01-30T14:56:30;100845.22;;;4.62;100.00
5522;BME280;2783;48.730;8.006;2023-01-30T14:59:00;100846.13;;;4.66;100.00
5522;BME280;2783;48.730;8.006;2023-01-30T15:01:26;100847.03;;;4.69;100.00
5522;BME280;2783;48.730;8.006;2023-01-30T15:03:52;100849.66;;;4.68;100.00
5522;BME280;2783;48.730;8.006;2023-01-30T15:06:17;100860.19;;;4.69;100.00
5522;BME280;2783;48.730;8.006;2023-01-30T15:08:44;100861.03;;;4.65;100.00
5522;BME280;2783;48.730;8.006;2023-01-30T15:11:11;100869.03;;;4.79;100.00
5522;BME280;2783;48.730;8.006;2023-01-30T15:13:41;100874.31;;;4.88;100.00
5522;BME280;2783;48.730;8.006;2023-01-30T15:18:50;100865.50;;;4.83;100.00
5522;BME280;2783;48.730;8.006;2023-01-30T15:24:11;100866.38;;;4.80;100.00
5522;BME280;2783;48.730;8.006;2023-01-30T15:26:49;100869.03;;;4.80;100.00
5522;BME280;2783;48.730;8.006;2023-01-30T15:29:24;100878.69;;;4.81;100.00
5522;BME280;2783;48.730;8.006;2023-01-30T15:31:53;100869.91;;;4.84;100.00
5522;BME280;2783;48.730;8.006;2023-01-30T15:34:19;100880.47;;;4.85;100.00
5522;BME280;2783;48.730;8.006;2023-01-30T15:36:44;100880.47;;;4.85;100.00
5522;BME280;2783;48.730;8.006;2023-01-30T15:41:44;100888.38;;;4.85;100.00
5522;BME280;2783;48.730;8.006;2023-01-30T15:51:47;100899.81;;;4.92;100.00
5522;BME280;2783;48.730;8.006;2023-01-30T15:54:15;100904.25;;;4.97;100.00
5522;BME280;2783;48.730;8.006;2023-01-30T15:56:41;100904.25;;;5.00;99.98
5522;BME280;2783;48.730;8.006;2023-01-30T15:59:11;100907.78;;;5.07;99.63
5522;BME280;2783;48.730;8.006;2023-01-30T16:01:44;100912.19;;;5.11;99.64